Time;durP1;ratioP1;P1;durP2;ratioP2;P2;SDS_P1;SDS_P2;PMS_P1;PMS_P2;Temp;Humidity;BMP_temperature;BMP_pressure;BME280_temperature;BME280_humidity;BME280_pressure;Samples;Min_cycle;Max_cycle;Signal;HPM_P1;HPM_P2
2021/09/13 13:45:20;;;;;;;5.32;1.30;;;23.10;58.00;;;;;;5110763;27;20461;-69
2021/09/13 13:47:46;;;;;;;5.38;1.73;;;22.60;58.20;;;;;;5112652;28;20028;-69
2021/09/13 13:50:12;;;;;;;7.38;1.40;;;22.60;57.70;;;;;;5111154;28;20335;-68
2021/09/13 13:52:37;;;;;;;4.05;1.83;;;22.40;60.90;;;;;;5094059;28;20103;-70
2021/09/13 13:55:02;;;;;;;6.85;1.70;;;22.30;58.20;;;;;;5111303;28;20108;-70
2021/09/13 13:57:29;;;;;;;7.85;1.65;;;22.40;59.80;;;;;;5111575;28;20164;-68
2021/09/13 13:59:55;;;;;;;7.20;1.45;;;23.00;56.30;;;;;;5038248;28;20054;-66
2021/09/13 14:05:32;;;;;;;3.97;1.42;;;23.60;55.30;;;;;;8363011;27;86220;-71
2021/09/13 14:09:33;;;;;;;7.05;1.67;;;23.80;56.00;;;;;;8427067;28;20066;-70
2021/09/13 14:13:33;;;;;;;8.00;1.48;;;23.50;54.90;;;;;;8427660;28;20017;-71
2021/09/13 14:17:34;;;;;;;5.45;2.10;;;23.30;54.00;;;;;;8428204;28;20103;-72
2021/09/13 14:21:36;;;;;;;5.03;1.67;;;24.60;53.70;;;;;;8427976;28;20063;-72
2021/09/13 14:25:36;;;;;;;2.85;1.40;;;25.10;53.80;;;;;;8428105;28;20059;-68
2021/09/13 14:29:37;;;;;;;5.95;1.92;;;25.30;51.70;;;;;;8418344;28;20035;-71
2021/09/13 14:33:37;;;;;;;8.50;1.75;;;25.20;50.50;;;;;;8283085;28;80558;-65
2021/09/13 14:37:38;;;;;;;5.25;1.85;;;25.20;53.10;;;;;;8359236;28;20065;-65
2021/09/13 14:41:38;;;;;;;3.10;1.52;;;25.60;50.50;;;;;;8366653;28;20050;-65
2021/09/13 14:45:40;;;;;;;5.80;1.73;;;24.40;53.30;;;;;;8336094;28;20414;-65
2021/09/13 14:49:40;;;;;;;5.63;1.70;;;23.10;55.40;;;;;;8370032;28;20022;-66
2021/09/13 14:53:41;;;;;;;12.80;1.95;;;23.60;57.60;;;;;;8360751;28;20044;-66
2021/09/13 14:57:41;;;;;;;5.63;1.48;;;23.80;56.60;;;;;;8359777;28;20075;-63
2021/09/13 15:01:42;;;;;;;4.72;1.40;;;23.50;58.40;;;;;;8359217;28;20032;-62
2021/09/13 15:05:42;;;;;;;3.85;1.15;;;23.10;59.30;;;;;;8360764;28;20040;-63
2021/09/13 15:09:43;;;;;;;6.60;1.63;;;22.90;58.60;;;;;;8359785;28;20029;-63
2021/09/13 15:13:43;;;;;;;4.07;1.90;;;22.80;59.50;;;;;;8355513;28;20298;-62
2021/09/13 15:17:44;;;;;;;7.70;2.35;;;22.70;60.30;;;;;;8336905;28;20018;-66
2021/09/13 15:21:44;;;;;;;8.30;2.22;;;22.70;59.80;;;;;;8337500;28;20092;-65
2021/09/13 15:25:44;;;;;;;5.28;1.73;;;22.60;60.10;;;;;;8337726;28;20090;-64
2021/09/13 15:29:45;;;;;;;12.93;1.55;;;22.40;61.60;;;;;;8336896;28;20033;-64
2021/09/13 15:33:45;;;;;;;7.57;1.48;;;22.40;61.90;;;;;;8336599;28;20108;-61
2021/09/13 15:37:46;;;;;;;4.78;1.55;;;22.30;62.00;;;;;;8336374;28;20040;-61
2021/09/13 15:41:46;;;;;;;9.43;2.10;;;22.20;62.10;;;;;;8335906;28;20419;-62
2021/09/13 15:45:47;;;;;;;4.30;1.52;;;22.10;62.20;;;;;;8337496;28;20021;-63
2021/09/13 15:49:47;;;;;;;6.85;1.77;;;22.10;62.60;;;;;;8335853;28;20049;-61
2021/09/13 15:53:48;;;;;;;3.80;1.90;;;22.10;61.90;;;;;;8336462;28;20033;-62
2021/09/13 15:57:48;;;;;;;6.30;1.27;;;21.90;62.00;;;;;;8335490;28;20029;-62
2021/09/13 16:01:48;;;;;;;4.78;1.88;;;21.90;62.20;;;;;;8335311;28;20029;-61
2021/09/13 16:05:49;;;;;;;7.93;2.00;;;21.80;62.30;;;;;;8336374;28;20499;-62
2021/09/13 16:09:49;;;;;;;4.75;1.70;;;21.70;62.60;;;;;;8335728;28;20101;-62
2021/09/13 16:13:50;;;;;;;3.67;1.50;;;21.70;63.40;;;;;;8336311;28;20030;-63
2021/09/13 16:17:50;;;;;;;8.93;2.47;;;21.70;62.90;;;;;;8328411;28;20118;-63
2021/09/13 16:21:50;;;;;;;5.53;1.92;;;21.60;63.50;;;;;;8330094;28;20025;-63
2021/09/13 16:25:53;;;;;;;4.43;1.20;;;21.60;63.90;;;;;;8329655;28;20429;-63
2021/09/13 16:29:54;;;;;;;9.55;1.67;;;21.60;64.10;;;;;;8345271;28;20500;-63
2021/09/13 16:33:54;;;;;;;5.32;1.40;;;21.60;63.20;;;;;;8330911;28;20115;-62
2021/09/13 16:37:54;;;;;;;5.88;1.58;;;21.50;63.30;;;;;;8329578;28;20044;-64
2021/09/13 16:41:55;;;;;;;4.50;1.58;;;21.50;63.30;;;;;;8325912;28;20033;-62
2021/09/13 16:45:55;;;;;;;5.43;1.50;;;21.50;64.20;;;;;;8328766;28;20048;-63
2021/09/13 16:49:56;;;;;;;6.57;1.88;;;21.90;64.30;;;;;;8324054;28;20025;-62
2021/09/13 16:53:56;;;;;;;6.15;1.60;;;22.10;63.70;;;;;;8344964;28;20460;-62
2021/09/13 16:57:57;;;;;;;3.88;1.40;;;22.30;63.40;;;;;;8328144;28;20044;-64
2021/09/13 17:01:57;;;;;;;2.05;1.30;;;22.40;63.30;;;;;;8327809;28;20057;-63
2021/09/13 17:05:58;;;;;;;4.32;1.02;;;22.50;63.20;;;;;;8344676;28;20083;-62
2021/09/13 17:09:58;;;;;;;4.70;1.58;;;22.50;63.20;;;;;;8125198;28;20043;-63
2021/09/13 17:13:59;;;;;;;6.03;2.13;;;22.60;63.40;;;;;;8256825;28;20034;-63
2021/09/13 17:17:59;;;;;;;3.25;1.42;;;22.60;63.30;;;;;;8268013;28;20026;-63
2021/09/13 17:21:59;;;;;;;2.05;1.00;;;22.50;63.30;;;;;;8267806;28;20369;-64
2021/09/13 17:26:00;;;;;;;1.10;1.00;;;22.50;63.40;;;;;;8268744;28;20026;-63
2021/09/13 17:30:00;;;;;;;2.65;1.10;;;22.50;63.40;;;;;;8267037;28;20110;-64
2021/09/13 17:34:01;;;;;;;4.68;1.35;;;22.50;63.30;;;;;;8268925;28;20037;-63
2021/09/13 17:38:01;;;;;;;6.13;2.08;;;22.50;63.40;;;;;;8272184;28;20077;-63
2021/09/13 17:42:02;;;;;;;8.75;2.80;;;22.50;63.40;;;;;;8300352;28;20034;-62
2021/09/13 17:46:03;;;;;;;8.63;2.72;;;22.50;63.60;;;;;;8301024;28;20025;-61
2021/09/13 17:50:03;;;;;;;7.35;2.97;;;22.50;63.60;;;;;;8300119;28;20034;-61
2021/09/13 17:54:04;;;;;;;5.35;3.00;;;22.40;63.70;;;;;;8301022;28;20350;-61
2021/09/13 17:58:04;;;;;;;13.10;3.67;;;22.40;63.80;;;;;;8299719;28;20113;-62
2021/09/13 18:02:05;;;;;;;14.00;4.15;;;22.40;63.90;;;;;;8304197;28;20429;-62
2021/09/13 18:06:05;;;;;;;12.35;3.75;;;22.40;63.90;;;;;;8332975;28;20021;-61
2021/09/13 18:10:05;;;;;;;10.20;3.45;;;22.40;62.80;;;;;;8332712;28;20036;-61
2021/09/13 18:14:06;;;;;;;9.43;2.95;;;22.30;62.50;;;;;;8333312;28;20044;-61
2021/09/13 18:18:06;;;;;;;10.68;3.63;;;22.30;62.10;;;;;;8332107;28;20123;-62
2021/09/13 18:22:07;;;;;;;11.77;3.13;;;22.30;62.70;;;;;;8332192;28;20033;-62
2021/09/13 18:26:07;;;;;;;9.20;3.45;;;22.30;62.70;;;;;;8332864;28;20288;-60
2021/09/13 18:30:08;;;;;;;11.80;3.40;;;22.20;62.90;;;;;;8332313;28;20029;-61
2021/09/13 18:34:08;;;;;;;13.95;3.85;;;22.20;63.50;;;;;;8332897;28;20086;-61
2021/09/13 18:38:08;;;;;;;9.30;3.28;;;22.20;63.10;;;;;;8331046;28;20026;-61
2021/09/13 18:42:09;;;;;;;8.52;3.38;;;22.20;63.60;;;;;;8327951;28;20029;-62
2021/09/13 18:46:09;;;;;;;12.90;4.10;;;22.20;63.40;;;;;;8327799;28;20018;-63
2021/09/13 18:50:10;;;;;;;12.35;3.58;;;22.20;64.30;;;;;;8329334;28;20036;-63
2021/09/13 18:54:11;;;;;;;9.88;3.65;;;22.20;64.70;;;;;;8333987;28;20056;-60
2021/09/13 18:58:11;;;;;;;8.73;4.00;;;22.20;64.30;;;;;;8333467;28;20503;-60
2021/09/13 19:02:12;;;;;;;7.82;3.28;;;22.20;64.80;;;;;;8315341;28;20029;-61
2021/09/13 19:06:12;;;;;;;9.52;3.65;;;22.20;64.50;;;;;;8333344;28;20076;-61
2021/09/13 19:10:13;;;;;;;6.97;3.45;;;22.20;64.60;;;;;;8333080;28;20048;-62
2021/09/13 19:14:13;;;;;;;6.93;2.47;;;22.20;65.50;;;;;;8333655;28;20021;-62
2021/09/13 19:18:14;;;;;;;9.90;3.08;;;22.20;64.70;;;;;;8332410;28;20021;-62
2021/09/13 19:22:14;;;;;;;7.35;2.42;;;22.20;64.70;;;;;;8332857;28;20025;-61
2021/09/13 19:26:15;;;;;;;5.00;2.58;;;22.20;65.20;;;;;;8332463;28;20356;-62
2021/09/13 19:30:15;;;;;;;9.27;2.53;;;22.20;65.20;;;;;;8330438;28;20022;-60
2021/09/13 19:34:15;;;;;;;7.97;2.83;;;22.20;65.20;;;;;;8332750;28;20029;-61
2021/09/13 19:38:16;;;;;;;5.50;2.15;;;22.20;65.30;;;;;;8332872;28;20040;-62
2021/09/13 19:42:16;;;;;;;7.63;2.40;;;22.20;65.30;;;;;;8315150;28;20029;-61
2021/09/13 19:46:17;;;;;;;5.82;2.13;;;22.20;65.30;;;;;;8332822;28;20184;-62
2021/09/13 19:50:18;;;;;;;2.63;2.03;;;22.20;65.70;;;;;;8333023;28;20033;-62
2021/09/13 19:54:18;;;;;;;4.95;1.90;;;22.20;65.60;;;;;;8332979;28;20041;-62
2021/09/13 19:58:18;;;;;;;3.40;1.85;;;22.20;65.70;;;;;;8332843;28;20030;-61
2021/09/13 20:02:19;;;;;;;4.53;1.77;;;22.20;65.70;;;;;;8331370;28;20049;-62
2021/09/13 20:06:19;;;;;;;4.60;2.10;;;22.20;65.80;;;;;;8332738;28;20472;-61
2021/09/13 20:10:20;;;;;;;6.22;2.15;;;22.20;66.00;;;;;;8332441;28;20113;-61
2021/09/13 20:14:21;;;;;;;8.70;2.50;;;22.20;66.00;;;;;;8333031;28;20048;-60
2021/09/13 20:18:21;;;;;;;5.95;2.00;;;22.20;66.10;;;;;;8331635;28;20037;-62
2021/09/13 20:22:22;;;;;;;8.27;2.60;;;22.20;66.30;;;;;;8331953;28;20216;-61
2021/09/13 20:26:22;;;;;;;5.15;2.47;;;22.20;66.40;;;;;;8332699;28;20478;-61
2021/09/13 20:30:22;;;;;;;5.95;1.58;;;22.20;66.40;;;;;;8331283;28;20087;-61
2021/09/13 20:34:23;;;;;;;2.65;1.50;;;22.30;66.40;;;;;;8332338;28;20026;-61
2021/09/13 20:38:23;;;;;;;5.43;1.95;;;22.30;66.50;;;;;;8331832;28;20029;-61
2021/09/13 20:42:24;;;;;;;3.30;1.80;;;22.30;66.70;;;;;;8330694;28;20034;-60
2021/09/13 20:46:24;;;;;;;3.92;2.03;;;22.20;66.60;;;;;;8330399;28;20120;-61
2021/09/13 20:50:24;;;;;;;2.50;1.35;;;22.20;66.70;;;;;;8331143;28;20083;-61
2021/09/13 20:54:25;;;;;;;4.40;1.80;;;22.20;66.70;;;;;;8331202;28;20034;-61
2021/09/13 20:58:25;;;;;;;3.20;1.75;;;22.20;66.70;;;;;;8322124;28;20040;-60
2021/09/13 21:02:26;;;;;;;5.75;2.00;;;22.20;66.60;;;;;;8323893;28;20034;-60
2021/09/13 21:06:26;;;;;;;6.40;1.80;;;22.20;66.80;;;;;;8329279;28;20028;-61
2021/09/13 21:10:26;;;;;;;4.45;1.83;;;22.20;66.80;;;;;;8329470;28;20524;-62
2021/09/13 21:14:28;;;;;;;1.95;1.13;;;22.20;66.90;;;;;;8329847;28;20029;-61
2021/09/13 21:18:28;;;;;;;2.75;1.55;;;22.20;66.90;;;;;;8328985;28;20033;-62
2021/09/13 21:22:29;;;;;;;4.75;1.88;;;22.20;67.00;;;;;;8326397;28;20041;-61
2021/09/13 21:26:29;;;;;;;2.47;1.30;;;22.20;67.00;;;;;;8329768;28;20460;-61
2021/09/13 21:30:29;;;;;;;8.52;1.60;;;22.20;67.10;;;;;;8329080;28;20113;-62
2021/09/13 21:34:30;;;;;;;2.92;1.40;;;22.20;67.20;;;;;;8329802;28;20091;-62
